sensor_id;sensor_type;location;lat;lon;timestamp;P1;durP1;ratioP1;P2;durP2;ratioP2
46651;SDS011;32377;52.182;5.398;2022-10-31T00:00:49;23.33;;;9.93;;
46651;SDS011;32377;52.182;5.398;2022-10-31T00:03:15;25.80;;;10.45;;
46651;SDS011;32377;52.182;5.398;2022-10-31T00:05:47;17.73;;;9.02;;
46651;SDS011;32377;52.182;5.398;2022-10-31T00:08:14;19.50;;;10.50;;
46651;SDS011;32377;52.182;5.398;2022-10-31T00:10:41;18.55;;;9.95;;
46651;SDS011;32377;52.182;5.398;2022-10-31T00:13:07;16.95;;;9.25;;
46651;SDS011;32377;52.182;5.398;2022-10-31T00:15:35;20.23;;;10.65;;
46651;SDS011;32377;52.182;5.398;2022-10-31T00:18:02;21.38;;;10.48;;
46651;SDS011;32377;52.182;5.398;2022-10-31T00:20:28;15.23;;;9.07;;
46651;SDS011;32377;52.182;5.398;2022-10-31T00:22:57;17.67;;;10.18;;
46651;SDS011;32377;52.182;5.398;2022-10-31T00:25:27;20.92;;;9.80;;
46651;SDS011;32377;52.182;5.398;2022-10-31T00:27:53;17.58;;;9.80;;
46651;SDS011;32377;52.182;5.398;2022-10-31T00:30:19;17.75;;;10.05;;
46651;SDS011;32377;52.182;5.398;2022-10-31T00:32:45;19.30;;;9.80;;
46651;SDS011;32377;52.182;5.398;2022-10-31T00:35:10;17.13;;;9.55;;
46651;SDS011;32377;52.182;5.398;2022-10-31T00:37:36;14.40;;;8.77;;
46651;SDS011;32377;52.182;5.398;2022-10-31T00:40:02;17.83;;;8.45;;
46651;SDS011;32377;52.182;5.398;2022-10-31T00:42:27;15.63;;;9.13;;
46651;SDS011;32377;52.182;5.398;2022-10-31T00:44:53;18.98;;;8.60;;
46651;SDS011;32377;52.182;5.398;2022-10-31T00:47:18;19.77;;;9.60;;
46651;SDS011;32377;52.182;5.398;2022-10-31T00:49:44;18.80;;;8.18;;
46651;SDS011;32377;52.182;5.398;2022-10-31T00:52:10;15.23;;;8.65;;
46651;SDS011;32377;52.182;5.398;2022-10-31T00:54:35;21.35;;;9.98;;
46651;SDS011;32377;52.182;5.398;2022-10-31T00:57:01;14.75;;;8.40;;
46651;SDS011;32377;52.182;5.398;2022-10-31T00:59:26;17.08;;;8.18;;
46651;SDS011;32377;52.182;5.398;2022-10-31T01:01:52;15.45;;;8.65;;
46651;SDS011;32377;52.182;5.398;2022-10-31T01:04:17;14.75;;;8.27;;
46651;SDS011;32377;52.182;5.398;2022-10-31T01:06:43;13.85;;;7.82;;
46651;SDS011;32377;52.182;5.398;2022-10-31T01:09:08;16.42;;;9.13;;
46651;SDS011;32377;52.182;5.398;2022-10-31T01:11:34;18.83;;;9.75;;
46651;SDS011;32377;52.182;5.398;2022-10-31T01:14:00;20.98;;;10.05;;
46651;SDS011;32377;52.182;5.398;2022-10-31T01:16:26;17.27;;;10.75;;
46651;SDS011;32377;52.182;5.398;2022-10-31T01:18:52;25.45;;;11.70;;
46651;SDS011;32377;52.182;5.398;2022-10-31T01:21:18;23.23;;;11.73;;
46651;SDS011;32377;52.182;5.398;2022-10-31T01:23:45;22.25;;;10.93;;
46651;SDS011;32377;52.182;5.398;2022-10-31T01:26:16;24.05;;;11.43;;
46651;SDS011;32377;52.182;5.398;2022-10-31T01:28:47;24.13;;;11.50;;
46651;SDS011;32377;52.182;5.398;2022-10-31T01:31:15;20.42;;;10.65;;
46651;SDS011;32377;52.182;5.398;2022-10-31T01:33:42;18.92;;;10.00;;
46651;SDS011;32377;52.182;5.398;2022-10-31T01:36:12;14.00;;;8.63;;
46651;SDS011;32377;52.182;5.398;2022-10-31T01:38:38;18.38;;;9.20;;
46651;SDS011;32377;52.182;5.398;2022-10-31T01:41:04;20.83;;;10.70;;
46651;SDS011;32377;52.182;5.398;2022-10-31T01:43:51;18.20;;;9.52;;
46651;SDS011;32377;52.182;5.398;2022-10-31T01:48:57;16.45;;;10.63;;
46651;SDS011;32377;52.182;5.398;2022-10-31T01:51:28;23.13;;;11.65;;
46651;SDS011;32377;52.182;5.398;2022-10-31T01:53:59;24.45;;;12.00;;
46651;SDS011;32377;52.182;5.398;2022-10-31T01:56:29;17.88;;;11.48;;
46651;SDS011;32377;52.182;5.398;2022-10-31T01:58:55;18.67;;;11.45;;
46651;SDS011;32377;52.182;5.398;2022-10-31T02:01:24;22.05;;;11.18;;
46651;SDS011;32377;52.182;5.398;2022-10-31T02:03:50;18.58;;;11.48;;
46651;SDS011;32377;52.182;5.398;2022-10-31T02:06:51;24.35;;;13.02;;
46651;SDS011;32377;52.182;5.398;2022-10-31T02:09:11;28.33;;;13.70;;
46651;SDS011;32377;52.182;5.398;2022-10-31T02:11:38;20.02;;;12.90;;
46651;SDS011;32377;52.182;5.398;2022-10-31T02:14:05;30.45;;;13.73;;
46651;SDS011;32377;52.182;5.398;2022-10-31T02:16:31;23.80;;;13.82;;
46651;SDS011;32377;52.182;5.398;2022-10-31T02:18:57;23.63;;;13.25;;
46651;SDS011;32377;52.182;5.398;2022-10-31T02:21:24;30.92;;;13.48;;
46651;SDS011;32377;52.182;5.398;2022-10-31T02:24:18;24.10;;;13.20;;
46651;SDS011;32377;52.182;5.398;2022-10-31T02:26:57;23.45;;;13.32;;
46651;SDS011;32377;52.182;5.398;2022-10-31T02:35:17;30.00;;;14.57;;
46651;SDS011;32377;52.182;5.398;2022-10-31T02:38:14;28.13;;;14.23;;
46651;SDS011;32377;52.182;5.398;2022-10-31T02:43:35;24.33;;;14.93;;
46651;SDS011;32377;52.182;5.398;2022-10-31T02:46:13;33.05;;;16.98;;
46651;SDS011;32377;52.182;5.398;2022-10-31T02:48:47;27.98;;;16.00;;
46651;SDS011;32377;52.182;5.398;2022-10-31T02:51:17;30.10;;;17.05;;
46651;SDS011;32377;52.182;5.398;2022-10-31T02:53:43;33.78;;;18.17;;
46651;SDS011;32377;52.182;5.398;2022-10-31T02:56:14;31.38;;;18.63;;
46651;SDS011;32377;52.182;5.398;2022-10-31T02:58:42;34.78;;;19.33;;
46651;SDS011;32377;52.182;5.398;2022-10-31T03:15:35;36.72;;;20.90;;
46651;SDS011;32377;52.182;5.398;2022-10-31T03:20:53;35.55;;;21.48;;
46651;SDS011;32377;52.182;5.398;2022-10-31T03:23:26;32.67;;;19.95;;
46651;SDS011;32377;52.182;5.398;2022-10-31T03:25:54;34.72;;;21.10;;
46651;SDS011;32377;52.182;5.398;2022-10-31T03:28:22;35.85;;;21.63;;
46651;SDS011;32377;52.182;5.398;2022-10-31T03:30:52;37.25;;;21.50;;
46651;SDS011;32377;52.182;5.398;2022-10-31T03:33:20;38.13;;;21.83;;
46651;SDS011;32377;52.182;5.398;2022-10-31T03:35:50;30.83;;;21.38;;
46651;SDS011;32377;52.182;5.398;2022-10-31T03:38:18;34.38;;;21.30;;
46651;SDS011;32377;52.182;5.398;2022-10-31T03:40:46;43.90;;;21.90;;
46651;SDS011;32377;52.182;5.398;2022-10-31T03:43:17;43.75;;;21.67;;
46651;SDS011;32377;52.182;5.398;2022-10-31T03:45:47;34.42;;;21.63;;
46651;SDS011;32377;52.182;5.398;2022-10-31T03:48:13;40.05;;;20.48;;
46651;SDS011;32377;52.182;5.398;2022-10-31T03:51:05;33.85;;;20.33;;
46651;SDS011;32377;52.182;5.398;2022-10-31T03:56:43;41.33;;;22.00;;
46651;SDS011;32377;52.182;5.398;2022-10-31T03:59:17;45.60;;;22.02;;
46651;SDS011;32377;52.182;5.398;2022-10-31T04:01:52;38.58;;;21.27;;
46651;SDS011;32377;52.182;5.398;2022-10-31T04:04:22;41.80;;;22.95;;
46651;SDS011;32377;52.182;5.398;2022-10-31T04:06:48;38.28;;;21.60;;
46651;SDS011;32377;52.182;5.398;2022-10-31T04:09:16;40.40;;;22.58;;
46651;SDS011;32377;52.182;5.398;2022-10-31T04:11:48;40.55;;;22.67;;
46651;SDS011;32377;52.182;5.398;2022-10-31T04:14:16;41.72;;;24.33;;
46651;SDS011;32377;52.182;5.398;2022-10-31T04:16:42;34.45;;;21.45;;
46651;SDS011;32377;52.182;5.398;2022-10-31T04:19:12;37.97;;;21.27;;
46651;SDS011;32377;52.182;5.398;2022-10-31T04:21:37;40.38;;;21.67;;
46651;SDS011;32377;52.182;5.398;2022-10-31T04:24:03;38.25;;;22.65;;
46651;SDS011;32377;52.182;5.398;2022-10-31T04:26:29;33.38;;;20.42;;
46651;SDS011;32377;52.182;5.398;2022-10-31T04:28:54;35.95;;;21.08;;
46651;SDS011;32377;52.182;5.398;2022-10-31T04:31:20;37.03;;;21.75;;
46651;SDS011;32377;52.182;5.398;2022-10-31T04:33:46;39.22;;;21.08;;
46651;SDS011;32377;52.182;5.398;2022-10-31T04:36:11;41.03;;;21.88;;
46651;SDS011;32377;52.182;5.398;2022-10-31T04:38:37;33.25;;;20.48;;
46651;SDS011;32377;52.182;5.398;2022-10-31T04:41:03;37.22;;;21.52;;
46651;SDS011;32377;52.182;5.398;2022-10-31T04:43:28;33.13;;;20.73;;
46651;SDS011;32377;52.182;5.398;2022-10-31T04:45:54;38.42;;;20.83;;
46651;SDS011;32377;52.182;5.398;2022-10-31T04:48:19;32.55;;;20.95;;
46651;SDS011;32377;52.182;5.398;2022-10-31T04:50:45;37.40;;;21.73;;
46651;SDS011;32377;52.182;5.398;2022-10-31T04:53:11;41.20;;;21.75;;
46651;SDS011;32377;52.182;5.398;2022-10-31T04:55:36;33.10;;;20.33;;
46651;SDS011;32377;52.182;5.398;2022-10-31T04:58:02;32.25;;;20.25;;
46651;SDS011;32377;52.182;5.398;2022-10-31T05:00:28;32.30;;;20.95;;
46651;SDS011;32377;52.182;5.398;2022-10-31T05:02:55;36.88;;;21.38;;
46651;SDS011;32377;52.182;5.398;2022-10-31T05:05:23;36.58;;;21.83;;
46651;SDS011;32377;52.182;5.398;2022-10-31T05:07:52;31.33;;;20.27;;
46651;SDS011;32377;52.182;5.398;2022-10-31T05:10:19;37.42;;;22.42;;
46651;SDS011;32377;52.182;5.398;2022-10-31T05:12:48;36.15;;;22.30;;
46651;SDS011;32377;52.182;5.398;2022-10-31T05:15:18;39.53;;;22.85;;
46651;SDS011;32377;52.182;5.398;2022-10-31T05:17:45;38.97;;;24.88;;
46651;SDS011;32377;52.182;5.398;2022-10-31T05:20:12;35.13;;;23.25;;
46651;SDS011;32377;52.182;5.398;2022-10-31T05:22:42;41.28;;;22.67;;
46651;SDS011;32377;52.182;5.398;2022-10-31T05:25:08;39.10;;;23.38;;
46651;SDS011;32377;52.182;5.398;2022-10-31T05:27:34;39.33;;;21.88;;
46651;SDS011;32377;52.182;5.398;2022-10-31T05:30:03;41.97;;;24.25;;
46651;SDS011;32377;52.182;5.398;2022-10-31T05:32:28;42.40;;;25.15;;
46651;SDS011;32377;52.182;5.398;2022-10-31T05:34:54;37.63;;;22.92;;
46651;SDS011;32377;52.182;5.398;2022-10-31T05:37:20;38.72;;;23.35;;
46651;SDS011;32377;52.182;5.398;2022-10-31T05:39:45;56.88;;;24.77;;
46651;SDS011;32377;52.182;5.398;2022-10-31T05:42:11;43.67;;;24.52;;
46651;SDS011;32377;52.182;5.398;2022-10-31T05:44:36;42.80;;;23.77;;
46651;SDS011;32377;52.182;5.398;2022-10-31T05:47:02;39.33;;;24.23;;
46651;SDS011;32377;52.182;5.398;2022-10-31T05:49:27;38.50;;;24.52;;
46651;SDS011;32377;52.182;5.398;2022-10-31T05:51:56;44.95;;;24.48;;
46651;SDS011;32377;52.182;5.398;2022-10-31T05:54:22;42.15;;;23.98;;
46651;SDS011;32377;52.182;5.398;2022-10-31T05:56:48;37.65;;;24.42;;
46651;SDS011;32377;52.182;5.398;2022-10-31T05:59:14;41.60;;;24.98;;
46651;SDS011;32377;52.182;5.398;2022-10-31T06:01:39;40.22;;;25.52;;
46651;SDS011;32377;52.182;5.398;2022-10-31T06:04:05;41.97;;;26.55;;
46651;SDS011;32377;52.182;5.398;2022-10-31T06:06:30;47.55;;;26.73;;
46651;SDS011;32377;52.182;5.398;2022-10-31T06:08:56;44.03;;;26.48;;
46651;SDS011;32377;52.182;5.398;2022-10-31T06:11:22;59.42;;;27.73;;
46651;SDS011;32377;52.182;5.398;2022-10-31T06:13:47;46.72;;;26.75;;
46651;SDS011;32377;52.182;5.398;2022-10-31T06:16:13;41.88;;;25.42;;
46651;SDS011;32377;52.182;5.398;2022-10-31T06:18:38;56.83;;;27.33;;
46651;SDS011;32377;52.182;5.398;2022-10-31T06:21:04;47.03;;;27.30;;
46651;SDS011;32377;52.182;5.398;2022-10-31T06:23:29;58.13;;;26.85;;
46651;SDS011;32377;52.182;5.398;2022-10-31T06:25:55;55.40;;;26.77;;
46651;SDS011;32377;52.182;5.398;2022-10-31T06:28:21;54.03;;;25.40;;
46651;SDS011;32377;52.182;5.398;2022-10-31T06:30:46;51.67;;;25.45;;
46651;SDS011;32377;52.182;5.398;2022-10-31T06:33:12;58.17;;;24.70;;
46651;SDS011;32377;52.182;5.398;2022-10-31T06:35:37;64.57;;;22.90;;
46651;SDS011;32377;52.182;5.398;2022-10-31T06:38:03;58.20;;;24.05;;
46651;SDS011;32377;52.182;5.398;2022-10-31T06:40:28;57.13;;;24.23;;
46651;SDS011;32377;52.182;5.398;2022-10-31T06:42:58;69.50;;;23.35;;
46651;SDS011;32377;52.182;5.398;2022-10-31T06:45:24;94.82;;;23.42;;
46651;SDS011;32377;52.182;5.398;2022-10-31T06:47:54;131.88;;;27.00;;
46651;SDS011;32377;52.182;5.398;2022-10-31T06:50:20;107.80;;;26.00;;
46651;SDS011;32377;52.182;5.398;2022-10-31T06:52:53;95.43;;;24.50;;
46651;SDS011;32377;52.182;5.398;2022-10-31T06:55:20;103.75;;;23.63;;
46651;SDS011;32377;52.182;5.398;2022-10-31T06:58:09;73.20;;;23.73;;
46651;SDS011;32377;52.182;5.398;2022-10-31T07:00:34;70.10;;;22.85;;
46651;SDS011;32377;52.182;5.398;2022-10-31T07:03:00;56.08;;;21.67;;
46651;SDS011;32377;52.182;5.398;2022-10-31T07:05:28;70.78;;;23.00;;
46651;SDS011;32377;52.182;5.398;2022-10-31T07:07:58;68.82;;;21.77;;
46651;SDS011;32377;52.182;5.398;2022-10-31T07:10:34;92.43;;;23.10;;
46651;SDS011;32377;52.182;5.398;2022-10-31T07:13:02;84.18;;;23.00;;
46651;SDS011;32377;52.182;5.398;2022-10-31T07:15:29;72.10;;;21.63;;
46651;SDS011;32377;52.182;5.398;2022-10-31T07:18:02;78.65;;;23.10;;
46651;SDS011;32377;52.182;5.398;2022-10-31T07:20:28;86.25;;;23.10;;
46651;SDS011;32377;52.182;5.398;2022-10-31T07:22:54;64.18;;;23.10;;
46651;SDS011;32377;52.182;5.398;2022-10-31T07:25:20;79.63;;;23.50;;
46651;SDS011;32377;52.182;5.398;2022-10-31T07:27:46;80.45;;;24.17;;
46651;SDS011;32377;52.182;5.398;2022-10-31T07:30:13;85.60;;;23.00;;
46651;SDS011;32377;52.182;5.398;2022-10-31T07:35:09;67.22;;;21.95;;
46651;SDS011;32377;52.182;5.398;2022-10-31T07:37:37;69.03;;;25.30;;
46651;SDS011;32377;52.182;5.398;2022-10-31T07:40:03;71.63;;;24.08;;
46651;SDS011;32377;52.182;5.398;2022-10-31T07:42:36;55.83;;;23.13;;
46651;SDS011;32377;52.182;5.398;2022-10-31T07:45:11;59.60;;;22.67;;
46651;SDS011;32377;52.182;5.398;2022-10-31T07:47:50;47.00;;;23.30;;
46651;SDS011;32377;52.182;5.398;2022-10-31T07:50:28;47.83;;;25.35;;
46651;SDS011;32377;52.182;5.398;2022-10-31T07:53:01;36.25;;;23.20;;
46651;SDS011;32377;52.182;5.398;2022-10-31T07:55:34;59.92;;;24.55;;
46651;SDS011;32377;52.182;5.398;2022-10-31T07:58:04;37.40;;;23.08;;
46651;SDS011;32377;52.182;5.398;2022-10-31T08:00:34;35.13;;;22.85;;
46651;SDS011;32377;52.182;5.398;2022-10-31T08:03:19;36.53;;;23.23;;
46651;SDS011;32377;52.182;5.398;2022-10-31T08:05:45;32.38;;;21.60;;
46651;SDS011;32377;52.182;5.398;2022-10-31T08:08:11;31.70;;;22.17;;
46651;SDS011;32377;52.182;5.398;2022-10-31T08:10:38;32.33;;;22.60;;
46651;SDS011;32377;52.182;5.398;2022-10-31T08:13:07;30.95;;;20.75;;
46651;SDS011;32377;52.182;5.398;2022-10-31T08:15:36;30.95;;;22.25;;
46651;SDS011;32377;52.182;5.398;2022-10-31T08:18:13;33.65;;;21.55;;
46651;SDS011;32377;52.182;5.398;2022-10-31T08:20:40;33.50;;;21.88;;
46651;SDS011;32377;52.182;5.398;2022-10-31T08:23:06;36.20;;;22.42;;
46651;SDS011;32377;52.182;5.398;2022-10-31T08:25:33;32.05;;;21.33;;
46651;SDS011;32377;52.182;5.398;2022-10-31T08:27:59;31.65;;;22.52;;
46651;SDS011;32377;52.182;5.398;2022-10-31T08:30:26;33.78;;;22.42;;
46651;SDS011;32377;52.182;5.398;2022-10-31T08:33:12;33.95;;;23.00;;
46651;SDS011;32377;52.182;5.398;2022-10-31T08:35:41;32.78;;;23.23;;
46651;SDS011;32377;52.182;5.398;2022-10-31T08:38:08;37.05;;;23.25;;
46651;SDS011;32377;52.182;5.398;2022-10-31T08:40:35;33.53;;;22.90;;
46651;SDS011;32377;52.182;5.398;2022-10-31T08:43:19;35.88;;;23.08;;
46651;SDS011;32377;52.182;5.398;2022-10-31T08:45:47;32.25;;;22.88;;
46651;SDS011;32377;52.182;5.398;2022-10-31T08:48:14;32.80;;;22.25;;
46651;SDS011;32377;52.182;5.398;2022-10-31T08:50:41;31.63;;;21.17;;
46651;SDS011;32377;52.182;5.398;2022-10-31T08:53:09;30.92;;;23.95;;
46651;SDS011;32377;52.182;5.398;2022-10-31T08:55:38;34.83;;;23.92;;
46651;SDS011;32377;52.182;5.398;2022-10-31T08:58:06;34.70;;;22.92;;
46651;SDS011;32377;52.182;5.398;2022-10-31T09:00:34;34.63;;;22.77;;
46651;SDS011;32377;52.182;5.398;2022-10-31T09:03:01;33.50;;;23.25;;
46651;SDS011;32377;52.182;5.398;2022-10-31T09:05:28;35.78;;;23.02;;
46651;SDS011;32377;52.182;5.398;2022-10-31T09:07:55;35.05;;;24.30;;
46651;SDS011;32377;52.182;5.398;2022-10-31T09:10:22;40.72;;;26.95;;
46651;SDS011;32377;52.182;5.398;2022-10-31T09:12:54;38.10;;;26.65;;
46651;SDS011;32377;52.182;5.398;2022-10-31T09:15:24;43.58;;;28.20;;
46651;SDS011;32377;52.182;5.398;2022-10-31T09:17:50;40.60;;;27.42;;
46651;SDS011;32377;52.182;5.398;2022-10-31T09:20:16;43.35;;;28.60;;
46651;SDS011;32377;52.182;5.398;2022-10-31T09:22:42;49.80;;;29.33;;
46651;SDS011;32377;52.182;5.398;2022-10-31T09:25:08;45.83;;;28.67;;
46651;SDS011;32377;52.182;5.398;2022-10-31T09:27:34;42.80;;;28.05;;
46651;SDS011;32377;52.182;5.398;2022-10-31T09:29:59;47.17;;;30.27;;
46651;SDS011;32377;52.182;5.398;2022-10-31T09:32:25;48.20;;;29.40;;
46651;SDS011;32377;52.182;5.398;2022-10-31T09:34:50;45.92;;;28.98;;
46651;SDS011;32377;52.182;5.398;2022-10-31T09:37:16;44.35;;;28.95;;
46651;SDS011;32377;52.182;5.398;2022-10-31T09:39:41;48.50;;;28.25;;
46651;SDS011;32377;52.182;5.398;2022-10-31T09:42:26;44.50;;;28.23;;
46651;SDS011;32377;52.182;5.398;2022-10-31T09:50:53;46.22;;;26.25;;
46651;SDS011;32377;52.182;5.398;2022-10-31T09:53:25;38.00;;;25.13;;
46651;SDS011;32377;52.182;5.398;2022-10-31T09:56:02;37.20;;;24.13;;
46651;SDS011;32377;52.182;5.398;2022-10-31T09:58:39;36.88;;;24.90;;
46651;SDS011;32377;52.182;5.398;2022-10-31T10:01:09;39.40;;;23.83;;
46651;SDS011;32377;52.182;5.398;2022-10-31T10:03:49;42.10;;;24.67;;
46651;SDS011;32377;52.182;5.398;2022-10-31T10:06:19;37.22;;;23.85;;
46651;SDS011;32377;52.182;5.398;2022-10-31T10:08:52;42.00;;;23.20;;
46651;SDS011;32377;52.182;5.398;2022-10-31T10:14:19;41.38;;;22.48;;
46651;SDS011;32377;52.182;5.398;2022-10-31T10:23:11;35.17;;;24.20;;
46651;SDS011;32377;52.182;5.398;2022-10-31T10:28:41;39.08;;;22.90;;
46651;SDS011;32377;52.182;5.398;2022-10-31T10:31:15;37.35;;;23.55;;
46651;SDS011;32377;52.182;5.398;2022-10-31T10:33:58;35.58;;;21.75;;
46651;SDS011;32377;52.182;5.398;2022-10-31T10:39:19;33.05;;;21.80;;
46651;SDS011;32377;52.182;5.398;2022-10-31T10:41:48;34.15;;;22.77;;
46651;SDS011;32377;52.182;5.398;2022-10-31T10:44:37;36.38;;;22.05;;
46651;SDS011;32377;52.182;5.398;2022-10-31T10:47:24;33.38;;;22.98;;
46651;SDS011;32377;52.182;5.398;2022-10-31T10:50:13;36.65;;;22.40;;
46651;SDS011;32377;52.182;5.398;2022-10-31T10:57:59;31.80;;;20.10;;
46651;SDS011;32377;52.182;5.398;2022-10-31T11:00:45;29.58;;;19.40;;
46651;SDS011;32377;52.182;5.398;2022-10-31T11:03:16;30.02;;;17.85;;
46651;SDS011;32377;52.182;5.398;2022-10-31T11:05:50;34.33;;;18.60;;
46651;SDS011;32377;52.182;5.398;2022-10-31T11:08:27;24.25;;;16.35;;
46651;SDS011;32377;52.182;5.398;2022-10-31T11:13:23;25.67;;;14.57;;
46651;SDS011;32377;52.182;5.398;2022-10-31T11:16:32;25.13;;;14.70;;
46651;SDS011;32377;52.182;5.398;2022-10-31T11:19:05;27.92;;;15.68;;
46651;SDS011;32377;52.182;5.398;2022-10-31T11:21:52;30.10;;;15.18;;
46651;SDS011;32377;52.182;5.398;2022-10-31T11:24:20;30.98;;;14.95;;
46651;SDS011;32377;52.182;5.398;2022-10-31T11:26:48;27.83;;;15.10;;
46651;SDS011;32377;52.182;5.398;2022-10-31T11:29:16;28.60;;;15.15;;
46651;SDS011;32377;52.182;5.398;2022-10-31T11:31:45;23.20;;;14.80;;
46651;SDS011;32377;52.182;5.398;2022-10-31T11:34:18;27.70;;;15.57;;
46651;SDS011;32377;52.182;5.398;2022-10-31T11:37:13;34.03;;;16.50;;
46651;SDS011;32377;52.182;5.398;2022-10-31T11:39:43;27.65;;;15.40;;
46651;SDS011;32377;52.182;5.398;2022-10-31T11:42:10;31.77;;;16.00;;
46651;SDS011;32377;52.182;5.398;2022-10-31T11:44:40;28.50;;;15.82;;
46651;SDS011;32377;52.182;5.398;2022-10-31T11:47:10;34.47;;;19.65;;
46651;SDS011;32377;52.182;5.398;2022-10-31T11:49:46;29.75;;;16.75;;
46651;SDS011;32377;52.182;5.398;2022-10-31T11:52:15;30.08;;;16.42;;
46651;SDS011;32377;52.182;5.398;2022-10-31T11:59:58;34.63;;;18.00;;
46651;SDS011;32377;52.182;5.398;2022-10-31T12:02:25;36.00;;;18.20;;
46651;SDS011;32377;52.182;5.398;2022-10-31T12:05:00;37.95;;;19.90;;
46651;SDS011;32377;52.182;5.398;2022-10-31T12:07:48;39.75;;;19.77;;
46651;SDS011;32377;52.182;5.398;2022-10-31T12:10:14;41.22;;;19.88;;
46651;SDS011;32377;52.182;5.398;2022-10-31T12:13:25;39.30;;;19.60;;
46651;SDS011;32377;52.182;5.398;2022-10-31T12:15:39;35.10;;;19.17;;
46651;SDS011;32377;52.182;5.398;2022-10-31T12:29:02;41.78;;;20.42;;
46651;SDS011;32377;52.182;5.398;2022-10-31T12:31:46;41.58;;;20.85;;
46651;SDS011;32377;52.182;5.398;2022-10-31T12:37:15;41.25;;;20.80;;
46651;SDS011;32377;52.182;5.398;2022-10-31T12:45:23;38.10;;;20.35;;
46651;SDS011;32377;52.182;5.398;2022-10-31T12:51:40;39.72;;;20.50;;
46651;SDS011;32377;52.182;5.398;2022-10-31T12:58:46;34.97;;;19.25;;
46651;SDS011;32377;52.182;5.398;2022-10-31T13:01:24;45.53;;;21.50;;
46651;SDS011;32377;52.182;5.398;2022-10-31T13:04:05;44.72;;;22.20;;
46651;SDS011;32377;52.182;5.398;2022-10-31T13:06:52;42.13;;;22.23;;
46651;SDS011;32377;52.182;5.398;2022-10-31T13:09:33;47.53;;;22.33;;
46651;SDS011;32377;52.182;5.398;2022-10-31T13:12:10;39.70;;;21.42;;
46651;SDS011;32377;52.182;5.398;2022-10-31T13:17:28;38.55;;;21.80;;
46651;SDS011;32377;52.182;5.398;2022-10-31T13:23:05;46.72;;;22.55;;
46651;SDS011;32377;52.182;5.398;2022-10-31T13:25:52;46.55;;;23.77;;
46651;SDS011;32377;52.182;5.398;2022-10-31T13:28:40;49.22;;;23.58;;
46651;SDS011;32377;52.182;5.398;2022-10-31T13:31:11;43.22;;;23.45;;
46651;SDS011;32377;52.182;5.398;2022-10-31T13:33:42;41.95;;;24.13;;
46651;SDS011;32377;52.182;5.398;2022-10-31T13:44:38;45.83;;;25.73;;
46651;SDS011;32377;52.182;5.398;2022-10-31T13:47:04;49.20;;;26.20;;
46651;SDS011;32377;52.182;5.398;2022-10-31T13:52:51;48.75;;;26.85;;
46651;SDS011;32377;52.182;5.398;2022-10-31T13:58:26;51.35;;;27.25;;
46651;SDS011;32377;52.182;5.398;2022-10-31T14:03:44;57.03;;;28.23;;
46651;SDS011;32377;52.182;5.398;2022-10-31T14:06:12;52.95;;;27.65;;
46651;SDS011;32377;52.182;5.398;2022-10-31T14:08:41;54.72;;;29.25;;
46651;SDS011;32377;52.182;5.398;2022-10-31T14:11:21;50.67;;;26.83;;
46651;SDS011;32377;52.182;5.398;2022-10-31T14:13:52;53.88;;;29.25;;
46651;SDS011;32377;52.182;5.398;2022-10-31T14:16:29;52.72;;;28.65;;
46651;SDS011;32377;52.182;5.398;2022-10-31T14:19:00;60.05;;;28.02;;
46651;SDS011;32377;52.182;5.398;2022-10-31T14:21:28;52.33;;;28.35;;
46651;SDS011;32377;52.182;5.398;2022-10-31T14:23:55;60.90;;;29.02;;
46651;SDS011;32377;52.182;5.398;2022-10-31T14:28:51;58.17;;;29.38;;
46651;SDS011;32377;52.182;5.398;2022-10-31T14:37:12;53.63;;;28.52;;
46651;SDS011;32377;52.182;5.398;2022-10-31T14:45:53;58.72;;;29.20;;
46651;SDS011;32377;52.182;5.398;2022-10-31T14:48:47;60.78;;;30.23;;
46651;SDS011;32377;52.182;5.398;2022-10-31T14:51:26;55.50;;;28.08;;
46651;SDS011;32377;52.182;5.398;2022-10-31T14:54:10;56.67;;;29.15;;
46651;SDS011;32377;52.182;5.398;2022-10-31T14:56:45;58.42;;;29.00;;
46651;SDS011;32377;52.182;5.398;2022-10-31T14:59:15;55.60;;;26.05;;
46651;SDS011;32377;52.182;5.398;2022-10-31T15:02:09;58.80;;;28.25;;
46651;SDS011;32377;52.182;5.398;2022-10-31T15:04:36;52.45;;;28.77;;
46651;SDS011;32377;52.182;5.398;2022-10-31T15:07:13;54.63;;;28.92;;
46651;SDS011;32377;52.182;5.398;2022-10-31T15:09:54;52.65;;;29.20;;
46651;SDS011;32377;52.182;5.398;2022-10-31T15:12:28;63.17;;;29.20;;
46651;SDS011;32377;52.182;5.398;2022-10-31T15:14:57;58.33;;;28.50;;
46651;SDS011;32377;52.182;5.398;2022-10-31T15:17:41;62.97;;;30.23;;
46651;SDS011;32377;52.182;5.398;2022-10-31T15:20:17;57.72;;;29.45;;
46651;SDS011;32377;52.182;5.398;2022-10-31T15:22:45;55.20;;;29.00;;
46651;SDS011;32377;52.182;5.398;2022-10-31T15:25:21;60.25;;;28.80;;
46651;SDS011;32377;52.182;5.398;2022-10-31T15:27:49;51.63;;;26.80;;
46651;SDS011;32377;52.182;5.398;2022-10-31T15:30:23;60.47;;;28.42;;
46651;SDS011;32377;52.182;5.398;2022-10-31T15:32:51;54.78;;;26.55;;
46651;SDS011;32377;52.182;5.398;2022-10-31T15:35:27;54.10;;;27.38;;
46651;SDS011;32377;52.182;5.398;2022-10-31T15:37:54;53.85;;;26.60;;
46651;SDS011;32377;52.182;5.398;2022-10-31T15:40:22;47.67;;;25.90;;
46651;SDS011;32377;52.182;5.398;2022-10-31T15:45:21;51.58;;;26.27;;
46651;SDS011;32377;52.182;5.398;2022-10-31T15:48:02;48.95;;;25.80;;
46651;SDS011;32377;52.182;5.398;2022-10-31T15:50:45;51.80;;;25.38;;
46651;SDS011;32377;52.182;5.398;2022-10-31T15:53:16;49.17;;;25.10;;
46651;SDS011;32377;52.182;5.398;2022-10-31T15:55:50;48.65;;;25.35;;
46651;SDS011;32377;52.182;5.398;2022-10-31T15:58:19;51.95;;;25.48;;
46651;SDS011;32377;52.182;5.398;2022-10-31T16:00:45;53.70;;;25.52;;
46651;SDS011;32377;52.182;5.398;2022-10-31T16:03:26;48.33;;;25.73;;
46651;SDS011;32377;52.182;5.398;2022-10-31T16:06:01;51.65;;;25.00;;
46651;SDS011;32377;52.182;5.398;2022-10-31T16:11:39;49.25;;;25.30;;
46651;SDS011;32377;52.182;5.398;2022-10-31T16:13:52;51.63;;;25.55;;
46651;SDS011;32377;52.182;5.398;2022-10-31T16:16:27;47.88;;;24.17;;
46651;SDS011;32377;52.182;5.398;2022-10-31T16:18:54;48.50;;;25.00;;
46651;SDS011;32377;52.182;5.398;2022-10-31T16:21:28;48.67;;;24.15;;
46651;SDS011;32377;52.182;5.398;2022-10-31T16:24:00;48.80;;;26.00;;
46651;SDS011;32377;52.182;5.398;2022-10-31T16:26:29;51.17;;;26.08;;
46651;SDS011;32377;52.182;5.398;2022-10-31T16:28:56;54.25;;;26.45;;
46651;SDS011;32377;52.182;5.398;2022-10-31T16:31:27;57.80;;;25.77;;
46651;SDS011;32377;52.182;5.398;2022-10-31T16:34:14;50.08;;;24.60;;
46651;SDS011;32377;52.182;5.398;2022-10-31T16:36:43;48.22;;;25.58;;
46651;SDS011;32377;52.182;5.398;2022-10-31T16:39:09;57.95;;;25.55;;
46651;SDS011;32377;52.182;5.398;2022-10-31T16:41:35;55.72;;;25.45;;
46651;SDS011;32377;52.182;5.398;2022-10-31T16:44:05;49.75;;;25.73;;
46651;SDS011;32377;52.182;5.398;2022-10-31T16:46:39;49.63;;;26.17;;
46651;SDS011;32377;52.182;5.398;2022-10-31T16:49:04;53.28;;;25.10;;
46651;SDS011;32377;52.182;5.398;2022-10-31T16:51:32;57.13;;;25.88;;
46651;SDS011;32377;52.182;5.398;2022-10-31T16:53:58;53.60;;;25.70;;
46651;SDS011;32377;52.182;5.398;2022-10-31T16:56:26;54.63;;;27.60;;
46651;SDS011;32377;52.182;5.398;2022-10-31T16:58:54;55.88;;;26.45;;
46651;SDS011;32377;52.182;5.398;2022-10-31T17:01:20;57.33;;;27.50;;